createdAt,value
2019-06-10T00:01:04.592Z,43.64
2019-06-10T00:03:32.046Z,42.81
2019-06-10T00:06:01.858Z,48.39
2019-06-10T00:08:30.845Z,51.02
2019-06-10T00:11:01.762Z,45.08
2019-06-10T00:13:31.248Z,53.90
2019-06-10T00:16:01.282Z,54.27
2019-06-10T00:18:38.334Z,56.77
2019-06-10T00:20:59.823Z,48.37
2019-06-10T00:23:28.520Z,44.74
2019-06-10T00:25:57.916Z,47.38
2019-06-10T00:28:26.125Z,45.71
2019-06-10T00:30:54.291Z,44.96
2019-06-10T00:33:22.417Z,44.30
2019-06-10T00:35:51.504Z,54.58
2019-06-10T00:38:21.442Z,53.13
2019-06-10T00:40:51.140Z,55.58
2019-06-10T00:43:18.608Z,47.45
2019-06-10T00:45:46.734Z,44.96
2019-06-10T00:48:25.009Z,46.26
2019-06-10T00:50:45.151Z,52.18
2019-06-10T00:53:14.550Z,44.76
2019-06-10T00:55:42.891Z,44.14
2019-06-10T00:58:13.951Z,44.20
2019-06-10T01:00:41.229Z,44.84
2019-06-10T01:03:13.450Z,43.37
2019-06-10T01:05:38.579Z,43.46
2019-06-10T01:08:06.967Z,44.44
2019-06-10T01:10:35.126Z,47.95
2019-06-10T01:13:03.489Z,55.20
2019-06-10T01:15:31.629Z,57.57
2019-06-10T01:18:01.369Z,57.67
2019-06-10T01:20:29.685Z,58.75
2019-06-10T01:22:57.806Z,48.36
2019-06-10T01:25:25.958Z,58.37
2019-06-10T01:27:54.139Z,56.75
2019-06-10T01:30:26.415Z,46.45
2019-06-10T01:32:52.086Z,45.61
2019-06-10T01:35:21.082Z,44.80
2019-06-10T01:37:51.845Z,44.41
2019-06-10T01:40:20.879Z,44.65
2019-06-10T01:42:50.644Z,44.83
2019-06-10T01:45:21.100Z,56.37
2019-06-10T01:47:50.975Z,58.85
2019-06-10T01:50:19.652Z,48.91
2019-06-10T01:52:48.502Z,46.49
2019-06-10T01:55:18.156Z,46.37
2019-06-10T01:57:46.495Z,45.65
2019-06-10T02:00:19.761Z,45.27
2019-06-10T02:02:45.301Z,46.89
2019-06-10T02:05:16.260Z,45.92
2019-06-10T02:07:42.619Z,45.93
2019-06-10T02:10:13.743Z,45.90
2019-06-10T02:12:41.562Z,46.52
2019-06-10T02:15:12.116Z,59.12
2019-06-10T02:17:38.907Z,59.98
2019-06-10T02:20:07.108Z,49.19
2019-06-10T02:22:35.225Z,55.89
2019-06-10T02:25:03.442Z,59.11
2019-06-10T02:27:31.601Z,47.29
2019-06-10T02:30:03.808Z,47.04
2019-06-10T02:32:36.889Z,47.31
2019-06-10T02:35:13.111Z,46.44
2019-06-10T02:37:32.310Z,46.22
2019-06-10T02:39:59.088Z,47.54
2019-06-10T02:42:35.576Z,58.17
2019-06-10T02:45:03.847Z,49.64
2019-06-10T02:47:37.248Z,46.82
2019-06-10T02:50:07.789Z,47.69
2019-06-10T02:52:37.229Z,46.52
2019-06-10T02:55:04.211Z,46.23
2019-06-10T02:57:39.443Z,46.12
2019-06-10T03:00:06.461Z,46.28
2019-06-10T03:02:35.889Z,47.27
2019-06-10T03:05:04.235Z,46.46
2019-06-10T03:07:32.629Z,46.13
2019-06-10T03:10:04.408Z,46.66
2019-06-10T03:12:32.948Z,47.16
2019-06-10T03:15:02.092Z,57.69
2019-06-10T03:17:32.275Z,47.15
2019-06-10T03:20:02.333Z,46.75
2019-06-10T03:22:32.627Z,47.24
2019-06-10T03:24:59.983Z,46.91
2019-06-10T03:27:28.281Z,46.28
2019-06-10T03:29:56.513Z,46.56
2019-06-10T03:32:32.301Z,48.02
2019-06-10T03:34:55.138Z,47.66
2019-06-10T03:37:25.992Z,47.19
2019-06-10T03:39:53.359Z,46.84
2019-06-10T03:42:23.684Z,53.34
2019-06-10T03:44:52.530Z,46.77
2019-06-10T03:47:21.828Z,46.25
2019-06-10T03:49:53.506Z,46.71
2019-06-10T03:52:23.510Z,49.92
2019-06-10T03:54:52.503Z,62.64
2019-06-10T03:57:23.519Z,65.29
2019-06-10T03:59:52.653Z,66.56
2019-06-10T04:02:23.260Z,67.13
2019-06-10T04:04:52.228Z,67.07
2019-06-10T04:07:20.884Z,51.12
2019-06-10T04:09:49.700Z,50.27
2019-06-10T04:12:17.797Z,53.10
2019-06-10T04:14:45.915Z,48.01
2019-06-10T04:17:14.048Z,47.15
2019-06-10T04:19:42.212Z,47.53
2019-06-10T04:22:10.380Z,46.64
2019-06-10T04:24:38.514Z,53.55
2019-06-10T04:27:06.665Z,50.11
2019-06-10T04:29:34.845Z,48.74
2019-06-10T04:32:03.253Z,46.66
2019-06-10T04:34:33.345Z,49.16
2019-06-10T04:37:03.119Z,45.81
2019-06-10T04:39:33.718Z,47.34
2019-06-10T04:42:02.406Z,49.53
2019-06-10T04:44:32.834Z,58.79
2019-06-10T04:47:02.698Z,60.75
2019-06-10T04:49:32.553Z,61.18
2019-06-10T04:52:02.836Z,61.67
2019-06-10T04:54:30.256Z,61.37
2019-06-10T04:56:58.440Z,50.13
2019-06-10T04:59:28.741Z,61.10
2019-06-10T05:01:55.768Z,63.05
2019-06-10T05:04:25.565Z,59.80
2019-06-10T05:06:53.841Z,62.14
2019-06-10T05:09:24.491Z,62.49
2019-06-10T05:11:52.316Z,61.63
2019-06-10T05:14:23.379Z,58.49
2019-06-10T05:16:50.592Z,58.83
2019-06-10T05:19:19.827Z,60.30
2019-06-10T05:21:48.076Z,59.30
2019-06-10T05:24:16.352Z,59.46
2019-06-10T05:26:44.526Z,59.48
2019-06-10T05:29:12.708Z,59.79
2019-06-10T05:31:43.505Z,58.67
2019-06-10T05:34:12.841Z,48.73
2019-06-10T05:36:43.550Z,48.62
2019-06-10T05:39:12.144Z,57.29
2019-06-10T05:41:43.033Z,46.93
2019-06-10T05:44:13.194Z,55.51
2019-06-10T05:46:43.284Z,45.94
2019-06-10T05:49:12.364Z,53.15
2019-06-10T05:51:42.366Z,45.56
2019-06-10T05:54:12.568Z,51.62
2019-06-10T05:56:39.969Z,46.80
2019-06-10T05:59:08.138Z,58.82
2019-06-10T06:01:38.328Z,46.73
2019-06-10T06:04:06.144Z,55.76
2019-06-10T06:06:35.467Z,46.98
2019-06-10T06:09:04.318Z,50.14
2019-06-10T06:11:34.093Z,58.75
2019-06-10T06:14:02.796Z,59.62
2019-06-10T06:16:33.128Z,49.70
2019-06-10T06:19:03.304Z,57.77
2019-06-10T06:21:39.597Z,55.49
2019-06-10T06:24:04.027Z,55.71
2019-06-10T06:26:36.290Z,46.97
2019-06-10T06:29:02.222Z,44.87
2019-06-10T06:31:32.873Z,47.12
2019-06-10T06:33:59.517Z,56.86
2019-06-10T06:36:28.655Z,57.01
2019-06-10T06:38:57.459Z,56.23
2019-06-10T06:41:25.602Z,54.25
2019-06-10T06:43:53.770Z,55.78
2019-06-10T06:46:23.327Z,55.50
2019-06-10T06:48:53.259Z,56.86
2019-06-10T06:51:36.032Z,53.67
2019-06-10T06:53:55.775Z,53.51
2019-06-10T06:56:23.059Z,52.39
2019-06-10T06:58:52.405Z,50.51
2019-06-10T07:01:25.546Z,52.54
2019-06-10T07:03:49.788Z,45.85
2019-06-10T07:06:17.899Z,49.28
2019-06-10T07:09:00.299Z,49.07
2019-06-10T07:11:18.677Z,48.26
2019-06-10T07:13:46.136Z,49.67
2019-06-10T07:16:14.318Z,51.94
2019-06-10T07:18:49.537Z,50.95
2019-06-10T07:21:13.242Z,45.78
2019-06-10T07:23:46.503Z,44.69
2019-06-10T07:26:12.717Z,48.22
2019-06-10T07:28:46.621Z,44.97
2019-06-10T07:31:20.764Z,43.80
2019-06-10T07:33:43.060Z,43.33
2019-06-10T07:36:13.168Z,43.64
2019-06-10T07:38:43.694Z,45.80
2019-06-10T07:41:12.593Z,44.63
2019-06-10T07:43:42.471Z,43.86
2019-06-10T07:46:09.407Z,45.93
2019-06-10T07:48:39.532Z,45.15
2019-06-10T07:51:07.557Z,45.19
2019-06-10T07:53:36.942Z,45.08
2019-06-10T07:56:05.887Z,43.43
2019-06-10T07:58:35.510Z,45.69
2019-06-10T08:01:03.951Z,45.80
2019-06-10T08:03:33.390Z,44.14
2019-06-10T08:06:03.285Z,44.94
2019-06-10T08:08:32.874Z,43.54
2019-06-10T08:11:03.510Z,42.52
2019-06-10T08:13:32.269Z,46.30
2019-06-10T08:16:02.864Z,44.79
2019-06-10T08:18:38.101Z,45.28
2019-06-10T08:21:02.912Z,44.22
2019-06-10T08:23:32.674Z,41.70
2019-06-10T08:26:03.160Z,39.03
2019-06-10T08:28:32.969Z,40.46
2019-06-10T08:31:00.043Z,47.00
2019-06-10T08:33:28.222Z,42.60
2019-06-10T08:36:00.434Z,43.95
2019-06-10T08:38:26.332Z,45.12
2019-06-10T08:40:54.582Z,52.11
2019-06-10T08:43:22.851Z,46.36
2019-06-10T08:45:52.913Z,39.03
2019-06-10T08:48:22.730Z,41.22
2019-06-10T08:50:53.050Z,43.43
2019-06-10T08:53:22.793Z,44.05
2019-06-10T08:55:53.419Z,42.18
2019-06-10T08:58:23.075Z,42.69
2019-06-10T09:00:53.278Z,39.40
2019-06-10T09:03:20.230Z,40.54
2019-06-10T09:05:50.899Z,43.23
2019-06-10T09:08:18.407Z,44.47
2019-06-10T09:10:49.897Z,42.53
2019-06-10T09:13:16.450Z,43.78
2019-06-10T09:15:50.835Z,40.68
2019-06-10T09:18:19.656Z,42.91
2019-06-10T09:20:49.038Z,43.96
2019-06-10T09:23:21.903Z,41.83
2019-06-10T09:25:47.661Z,39.85
2019-06-10T09:28:14.366Z,40.00
2019-06-10T09:30:47.562Z,39.87
2019-06-10T09:33:13.102Z,40.06
2019-06-10T09:35:45.486Z,38.70
2019-06-10T09:38:14.170Z,42.74
2019-06-10T09:40:59.000Z,43.23
2019-06-10T09:43:22.541Z,41.06
2019-06-10T09:45:56.289Z,37.73
2019-06-10T09:48:23.192Z,37.93
2019-06-10T09:50:57.873Z,40.54
2019-06-10T09:53:32.768Z,42.15
2019-06-10T09:55:55.622Z,38.52
2019-06-10T09:58:24.145Z,37.41
2019-06-10T10:00:57.650Z,39.89
2019-06-10T10:03:24.677Z,39.77
2019-06-10T10:06:07.250Z,45.49
2019-06-10T10:08:23.263Z,38.43
2019-06-10T10:10:58.465Z,43.14
2019-06-10T10:13:22.541Z,35.11
2019-06-10T10:15:53.868Z,35.44
2019-06-10T10:18:20.566Z,36.08
2019-06-10T10:20:51.255Z,35.01
2019-06-10T10:23:18.579Z,35.28
2019-06-10T10:25:48.230Z,33.31
2019-06-10T10:28:16.726Z,33.40
2019-06-10T10:30:47.002Z,35.28
2019-06-10T10:33:14.746Z,37.27
2019-06-10T10:35:45.763Z,36.51
2019-06-10T10:38:14.417Z,35.93
2019-06-10T10:40:44.140Z,36.52
2019-06-10T10:43:25.163Z,30.41
2019-06-10T10:45:45.628Z,32.19
2019-06-10T10:48:14.074Z,34.16
2019-06-10T10:50:43.843Z,32.35
2019-06-10T10:53:12.882Z,36.71
2019-06-10T10:55:42.502Z,34.80
2019-06-10T10:58:12.905Z,30.97
2019-06-10T11:00:47.441Z,34.08
2019-06-10T11:03:15.451Z,30.28
2019-06-10T11:05:46.243Z,33.30
2019-06-10T11:08:14.431Z,31.92
2019-06-10T11:10:45.633Z,30.82
2019-06-10T11:13:13.175Z,31.03
2019-06-10T11:15:43.426Z,34.90
2019-06-10T11:18:12.643Z,31.91
2019-06-10T11:20:40.988Z,31.42
2019-06-10T11:23:12.337Z,33.33
2019-06-10T11:25:40.345Z,33.36
2019-06-10T11:28:08.585Z,31.38
2019-06-10T11:30:36.754Z,31.75
2019-06-10T11:33:05.141Z,33.84
2019-06-10T11:35:33.282Z,34.24
2019-06-10T11:38:03.275Z,33.44
2019-06-10T11:40:33.926Z,33.21
2019-06-10T11:43:01.552Z,32.52
2019-06-10T11:45:29.781Z,33.00
2019-06-10T11:47:58.260Z,39.96
2019-06-10T11:50:26.714Z,32.94
2019-06-10T11:52:57.513Z,33.32
2019-06-10T11:55:24.739Z,32.58
2019-06-10T11:57:56.014Z,33.58
2019-06-10T12:00:25.479Z,34.68
2019-06-10T12:02:56.954Z,30.86
2019-06-10T12:05:23.717Z,30.65
2019-06-10T12:07:56.360Z,34.08
2019-06-10T12:10:23.502Z,32.09
2019-06-10T12:12:55.461Z,31.53
2019-06-10T12:15:22.787Z,34.11
2019-06-10T12:17:58.591Z,36.56
2019-06-10T12:20:22.854Z,31.37
2019-06-10T12:22:54.827Z,29.55
2019-06-10T12:25:32.530Z,36.06
2019-06-10T12:27:55.054Z,32.01
2019-06-10T12:30:22.643Z,29.93
2019-06-10T12:32:55.308Z,29.10
2019-06-10T12:35:23.052Z,31.50
2019-06-10T12:37:55.923Z,28.26
2019-06-10T12:40:21.621Z,27.79
2019-06-10T12:42:49.794Z,25.35
2019-06-10T12:45:18.207Z,30.76
2019-06-10T12:47:47.530Z,28.31
2019-06-10T12:50:16.096Z,25.68
2019-06-10T12:52:44.360Z,30.95
2019-06-10T12:55:12.711Z,33.58
2019-06-10T12:57:42.832Z,30.92
2019-06-10T13:00:20.497Z,30.45
2019-06-10T13:02:42.720Z,34.88
2019-06-10T13:05:12.235Z,29.99
2019-06-10T13:07:39.620Z,31.96
2019-06-10T13:10:08.546Z,33.02
2019-06-10T13:12:36.724Z,29.08
2019-06-10T13:15:08.399Z,30.37
2019-06-10T13:17:36.548Z,32.13
2019-06-10T13:20:06.404Z,36.83
2019-06-10T13:22:34.886Z,30.97
2019-06-10T13:25:03.134Z,34.41
2019-06-10T13:27:31.882Z,30.57
2019-06-10T13:30:00.292Z,29.96
2019-06-10T13:32:28.507Z,28.42
2019-06-10T13:34:56.708Z,29.94
2019-06-10T13:37:24.913Z,27.60
2019-06-10T13:39:53.057Z,34.96
2019-06-10T13:42:22.822Z,32.88
2019-06-10T13:44:52.285Z,35.14
2019-06-10T13:47:25.025Z,32.95
2019-06-10T13:49:53.243Z,31.08
2019-06-10T13:52:23.163Z,29.55
2019-06-10T13:54:52.664Z,30.86
2019-06-10T13:57:22.995Z,30.78
2019-06-10T13:59:52.019Z,30.35
2019-06-10T14:02:24.615Z,32.32
2019-06-10T14:04:50.062Z,31.39
2019-06-10T14:07:18.198Z,31.65
2019-06-10T14:09:46.306Z,33.49
2019-06-10T14:12:17.538Z,33.56
2019-06-10T14:14:44.466Z,32.38
2019-06-10T14:17:19.025Z,32.29
2019-06-10T14:19:43.284Z,32.40
2019-06-10T14:22:15.720Z,30.99
2019-06-10T14:24:42.147Z,29.14
2019-06-10T14:27:14.676Z,29.82
2019-06-10T14:29:41.994Z,29.69
2019-06-10T14:32:11.898Z,29.72
2019-06-10T14:34:42.065Z,29.29
2019-06-10T14:37:12.390Z,29.67
2019-06-10T14:39:42.293Z,27.92
2019-06-10T14:42:11.049Z,28.96
2019-06-10T14:44:41.998Z,29.08
2019-06-10T14:47:10.918Z,29.12
2019-06-10T14:49:39.461Z,29.42
2019-06-10T14:52:08.972Z,29.50
2019-06-10T14:54:37.211Z,29.64
2019-06-10T14:57:05.497Z,29.66
2019-06-10T14:59:33.646Z,29.29
2019-06-10T15:02:02.812Z,29.54
2019-06-10T15:04:33.182Z,29.57
2019-06-10T15:07:02.923Z,29.60
2019-06-10T15:09:33.333Z,33.34
2019-06-10T15:12:02.833Z,29.66
2019-06-10T15:14:32.348Z,28.23
2019-06-10T15:17:02.829Z,30.62
2019-06-10T15:19:30.499Z,27.91
2019-06-10T15:21:58.654Z,31.70
2019-06-10T15:24:26.783Z,31.11
2019-06-10T15:27:09.096Z,30.99
2019-06-10T15:29:25.309Z,31.95
2019-06-10T15:32:09.007Z,30.73
2019-06-10T15:34:23.371Z,30.73
2019-06-10T15:36:52.731Z,30.70
2019-06-10T15:39:23.998Z,30.81
2019-06-10T15:41:52.291Z,30.09
2019-06-10T15:44:40.467Z,30.14
2019-06-10T15:46:52.419Z,31.61
2019-06-10T15:49:24.425Z,30.29
2019-06-10T15:51:52.501Z,31.26
2019-06-10T15:54:24.554Z,30.80
2019-06-10T15:56:56.156Z,31.11
2019-06-10T15:59:21.119Z,30.76
2019-06-10T16:01:49.590Z,30.48
2019-06-10T16:04:19.328Z,28.35
2019-06-10T16:06:47.713Z,31.15
2019-06-10T16:09:16.999Z,32.08
2019-06-10T16:11:45.788Z,31.59
2019-06-10T16:14:14.759Z,30.67
2019-06-10T16:16:43.223Z,28.31
2019-06-10T16:19:13.305Z,31.20
2019-06-10T16:21:42.858Z,31.24
2019-06-10T16:24:13.672Z,33.16
2019-06-10T16:26:41.077Z,31.75
2019-06-10T16:29:09.223Z,32.77
2019-06-10T16:31:37.427Z,31.88
2019-06-10T16:34:05.629Z,31.82
2019-06-10T16:36:33.946Z,29.80
2019-06-10T16:39:03.409Z,33.08
2019-06-10T16:41:32.371Z,32.79
2019-06-10T16:44:02.959Z,34.08
2019-06-10T16:46:32.382Z,32.02
2019-06-10T16:49:03.125Z,32.45
2019-06-10T16:51:30.725Z,32.74
2019-06-10T16:53:58.906Z,32.78
2019-06-10T16:56:27.849Z,32.04
2019-06-10T16:58:56.053Z,32.53
2019-06-10T17:01:26.835Z,32.39
2019-06-10T17:03:54.110Z,32.10
2019-06-10T17:06:23.986Z,32.36
2019-06-10T17:08:52.500Z,32.32
2019-06-10T17:11:23.657Z,33.24
2019-06-10T17:13:52.672Z,32.94
2019-06-10T17:16:22.877Z,33.12
2019-06-10T17:18:50.580Z,32.26
2019-06-10T17:21:19.430Z,32.71
2019-06-10T17:23:47.964Z,32.87
2019-06-10T17:26:16.234Z,33.51
2019-06-10T17:28:44.325Z,33.62
2019-06-10T17:31:12.498Z,33.01
2019-06-10T17:33:42.722Z,34.01
2019-06-10T17:36:12.606Z,33.47
2019-06-10T17:38:42.943Z,33.43
2019-06-10T17:41:13.094Z,33.76
2019-06-10T17:43:42.918Z,33.42
2019-06-10T17:46:12.463Z,34.83
2019-06-10T17:48:43.041Z,36.93
2019-06-10T17:51:10.404Z,35.96
2019-06-10T17:53:38.561Z,38.79
2019-06-10T17:56:06.735Z,37.33
2019-06-10T17:58:50.067Z,37.81
2019-06-10T18:01:04.775Z,37.13
2019-06-10T18:03:33.429Z,37.18
2019-06-10T18:06:02.825Z,40.26
2019-06-10T18:08:34.595Z,37.27
2019-06-10T18:11:03.210Z,42.65
2019-06-10T18:13:34.014Z,38.67
2019-06-10T18:16:02.830Z,38.69
2019-06-10T18:18:33.806Z,39.03
2019-06-10T18:21:03.193Z,42.55
2019-06-10T18:23:30.846Z,38.46
2019-06-10T18:25:59.107Z,41.15
2019-06-10T18:28:27.268Z,42.90
2019-06-10T18:30:55.407Z,43.02
2019-06-10T18:33:23.523Z,38.80
2019-06-10T18:35:53.253Z,38.58
2019-06-10T18:38:21.726Z,42.26
2019-06-10T18:40:49.893Z,40.16
2019-06-10T18:43:22.395Z,44.90
2019-06-10T18:45:52.951Z,39.38
2019-06-10T18:48:20.097Z,41.11
2019-06-10T18:50:48.353Z,38.48
2019-06-10T18:53:16.513Z,38.55
2019-06-10T18:55:44.626Z,39.82
2019-06-10T18:58:12.950Z,40.11
2019-06-10T19:00:56.986Z,38.71
2019-06-10T19:03:16.395Z,38.93
2019-06-10T19:05:42.153Z,42.40
2019-06-10T19:08:10.386Z,39.26
2019-06-10T19:10:39.899Z,39.54
2019-06-10T19:13:08.340Z,38.93
2019-06-10T19:15:37.745Z,39.45
2019-06-10T19:18:06.265Z,39.77
2019-06-10T19:20:37.304Z,40.03
2019-06-10T19:23:04.679Z,40.25
2019-06-10T19:25:35.267Z,39.65
2019-06-10T19:28:02.830Z,40.82
2019-06-10T19:30:34.020Z,42.02
2019-06-10T19:33:02.511Z,40.97
2019-06-10T19:35:33.620Z,41.30
2019-06-10T19:38:02.290Z,41.69
2019-06-10T19:40:32.544Z,43.80
2019-06-10T19:43:03.050Z,41.60
2019-06-10T19:45:32.104Z,41.56
2019-06-10T19:48:03.140Z,42.23
2019-06-10T19:50:32.741Z,41.86
2019-06-10T19:53:02.685Z,42.33
2019-06-10T19:55:32.472Z,42.51
2019-06-10T19:58:03.835Z,42.96
2019-06-10T20:00:34.054Z,42.18
2019-06-10T20:03:02.885Z,46.02
2019-06-10T20:05:32.632Z,42.58
2019-06-10T20:08:02.819Z,42.51
2019-06-10T20:10:32.405Z,42.57
2019-06-10T20:13:00.420Z,42.54
2019-06-10T20:15:28.677Z,42.65
2019-06-10T20:17:56.805Z,42.47
2019-06-10T20:20:25.095Z,42.92
2019-06-10T20:22:56.594Z,42.85
2019-06-10T20:25:23.318Z,42.96
2019-06-10T20:27:52.431Z,42.78
2019-06-10T20:30:27.985Z,43.37
2019-06-10T20:32:54.881Z,43.32
2019-06-10T20:35:23.243Z,46.13
2019-06-10T20:37:53.624Z,45.15
2019-06-10T20:40:20.918Z,44.01
2019-06-10T20:42:49.111Z,44.22
2019-06-10T20:45:17.443Z,44.47
2019-06-10T20:47:47.981Z,44.41
2019-06-10T20:50:15.730Z,43.84
2019-06-10T20:52:45.990Z,44.08
2019-06-10T20:55:14.057Z,44.18
2019-06-10T20:57:57.610Z,44.47
2019-06-10T21:00:22.377Z,44.50
2019-06-10T21:02:45.522Z,44.73
2019-06-10T21:05:13.359Z,44.62
2019-06-10T21:07:44.170Z,44.77
2019-06-10T21:10:12.895Z,44.90
2019-06-10T21:12:43.970Z,45.36
2019-06-10T21:15:12.606Z,45.26
2019-06-10T21:17:40.903Z,45.48
2019-06-10T21:20:11.994Z,45.51
2019-06-10T21:22:40.477Z,45.53
2019-06-10T21:25:09.880Z,45.60
2019-06-10T21:27:38.026Z,51.78
2019-06-10T21:30:11.343Z,59.38
2019-06-10T21:32:36.390Z,61.54
2019-06-10T21:35:04.715Z,48.96
2019-06-10T21:37:32.999Z,47.94
2019-06-10T21:40:03.318Z,47.44
2019-06-10T21:42:32.715Z,47.15
2019-06-10T21:45:03.348Z,47.06
2019-06-10T21:47:32.286Z,47.47
2019-06-10T21:49:59.732Z,47.97
2019-06-10T21:52:27.848Z,47.55
2019-06-10T21:54:56.050Z,47.56
2019-06-10T21:57:24.259Z,47.40
2019-06-10T21:59:54.033Z,47.60
2019-06-10T22:02:23.087Z,47.80
2019-06-10T22:04:53.769Z,48.33
2019-06-10T22:07:22.395Z,49.04
2019-06-10T22:09:50.151Z,47.98
2019-06-10T22:12:18.261Z,47.79
2019-06-10T22:14:46.417Z,48.07
2019-06-10T22:17:14.724Z,48.12
2019-06-10T22:19:42.845Z,48.18
2019-06-10T22:22:12.942Z,48.48
2019-06-10T22:24:42.297Z,48.15
2019-06-10T22:27:09.747Z,48.45
2019-06-10T22:29:38.348Z,48.86
2019-06-10T22:32:06.523Z,48.60
2019-06-10T22:34:34.718Z,48.46
2019-06-10T22:37:03.311Z,48.84
2019-06-10T22:39:32.575Z,49.03
2019-06-10T22:42:03.083Z,48.28
2019-06-10T22:44:29.832Z,61.72
2019-06-10T22:46:58.372Z,49.72
2019-06-10T22:49:26.489Z,59.45
2019-06-10T22:51:57.920Z,66.08
2019-06-10T22:54:23.562Z,67.01
2019-06-10T22:56:54.238Z,51.58
2019-06-10T22:59:22.920Z,65.62
2019-06-10T23:01:53.596Z,65.11
2019-06-10T23:04:22.359Z,62.06
2019-06-10T23:06:53.052Z,54.66
2019-06-10T23:09:22.215Z,52.94
2019-06-10T23:11:50.516Z,52.91
2019-06-10T23:14:19.307Z,51.00
2019-06-10T23:16:48.794Z,50.79
2019-06-10T23:19:17.101Z,50.40
2019-06-10T23:21:45.880Z,50.19
2019-06-10T23:24:14.039Z,54.77
2019-06-10T23:26:42.571Z,65.25
2019-06-10T23:29:12.258Z,51.60
2019-06-10T23:31:51.550Z,52.95
2019-06-10T23:34:11.702Z,67.35
2019-06-10T23:36:40.315Z,54.90
2019-06-10T23:39:08.457Z,51.68
2019-06-10T23:41:36.617Z,50.87
2019-06-10T23:44:04.799Z,61.61
2019-06-10T23:46:32.924Z,52.50
2019-06-10T23:49:04.197Z,52.12
2019-06-10T23:51:33.113Z,50.89
2019-06-10T23:54:04.622Z,50.55
2019-06-10T23:56:32.493Z,50.66
2019-06-10T23:59:03.029Z,50.80
